Overview Statistics Trail Chart Weather Telemetry Raw packets
 

This is the latest recevied weather packets stored in our database for station/object 9W2CHF-3. If no packets are shown the sender has not sent any weather packets the latest 10 day(s).

<< 6 7 8 9 10 11 12 >>
Time Temp. Humidity Pressure Rain* Wind** Luminosity Snow
1788383766 26.67° C 100% 1011.8 hPa - - - -
1788382569 26.11° C 100% 1011.8 hPa - - - -
1788381366 26.67° C 100% 1011.8 hPa - - - -
1788380166 27.22° C 100% 1011.9 hPa - - - -
1788378966 26.11° C 100% 1011.9 hPa - - - -
1788377766 27.78° C 100% 1012.2 hPa - - - -
1788376566 27.78° C 100% 1012.2 hPa - - - -
1788375366 27.22° C 100% 1012.3 hPa - - - -
1788374165 26.67° C 100% 1012.5 hPa - - - -
1788372965 27.78° C 99% 1012.7 hPa - - - -
1788371765 27.22° C 100% 1012.7 hPa - - - -
1788370565 28.33° C 100% 1013 hPa - - - -
1788369365 28.33° C 97% 1013.3 hPa - - - -
1788368165 28.89° C 95% 1013.3 hPa - - - -
1788366965 30° C 91% 1013.3 hPa - - - -
1788365765 30° C 92% 1013.1 hPa - - - -
1788364565 28.89° C 98% 1013.2 hPa - - - -
1788363365 30° C 89% 1013.1 hPa - - - -
1788362165 31.11° C 86% 1012.9 hPa - - - -
1788360965 31.67° C 80% 1012.7 hPa - - - -
1788359765 31.11° C 79% 1012.4 hPa - - - -
1788358565 30.56° C 88% 1012.4 hPa - - - -
1788357365 31.11° C 87% 1012.1 hPa - - - -
1788356165 31.67° C 89% 1012 hPa - - - -
1788354965 31.67° C 86% 1012.1 hPa - - - -

* Rain since midnight (hover to see other rain measurements)
** Current wind speed in m/s (hover to see current wind gust speed)